Terminal Aerodrome Forecast
Issued by NWS Sioux Falls, SD

Home | Current Version | Previous Version | Graphics & Text | Print | Product List | Glossary Off
Versions: 1 2 3 4 5 6 7 8 9 10 11 12 13 14 15 16 17 18 19 20 21 22 23 24 25 26 27 28 29 30 31 32 33 34

000
FTUS43 KFSD 261120
TAFSUX
TAF
KSUX 261120Z 2612/2712 02005KT P6SM VCSH OVC005
      TEMPO 2612/2614 6SM -RA BR
     FM261700 35006KT P6SM OVC006
     FM262000 33007KT P6SM OVC008
     FM270000 36006KT P6SM OVC015
     FM270800 35004KT P6SM OVC008=

USA.gov is the U.S. government's official web portal to all federal, state and local government web resources and services.